sensor_id;sensor_type;location;lat;lon;timestamp;temperature;humidity
39519;DHT22;25200;53.394;10.414;2022-10-16T00:01:11;14.90;83.10
39519;DHT22;25200;53.394;10.414;2022-10-16T00:03:41;14.90;83.10
39519;DHT22;25200;53.394;10.414;2022-10-16T00:06:07;14.90;83.00
39519;DHT22;25200;53.394;10.414;2022-10-16T00:08:34;14.90;83.10
39519;DHT22;25200;53.394;10.414;2022-10-16T00:11:02;14.90;83.00
39519;DHT22;25200;53.394;10.414;2022-10-16T00:13:29;14.90;82.70
39519;DHT22;25200;53.394;10.414;2022-10-16T00:15:56;14.90;82.80
39519;DHT22;25200;53.394;10.414;2022-10-16T00:18:22;14.90;82.80
39519;DHT22;25200;53.394;10.414;2022-10-16T00:20:47;14.80;82.60
39519;DHT22;25200;53.394;10.414;2022-10-16T00:23:13;14.80;82.70
39519;DHT22;25200;53.394;10.414;2022-10-16T00:25:39;14.80;82.80
39519;DHT22;25200;53.394;10.414;2022-10-16T00:28:04;14.70;82.80
39519;DHT22;25200;53.394;10.414;2022-10-16T00:30:30;14.80;82.90
39519;DHT22;25200;53.394;10.414;2022-10-16T00:32:56;14.70;82.90
39519;DHT22;25200;53.394;10.414;2022-10-16T00:35:21;14.70;82.80
39519;DHT22;25200;53.394;10.414;2022-10-16T00:37:47;14.70;82.70
39519;DHT22;25200;53.394;10.414;2022-10-16T00:40:13;14.70;82.90
39519;DHT22;25200;53.394;10.414;2022-10-16T00:42:39;14.70;82.80
39519;DHT22;25200;53.394;10.414;2022-10-16T00:45:05;14.70;82.90
39519;DHT22;25200;53.394;10.414;2022-10-16T00:47:36;14.70;83.00
39519;DHT22;25200;53.394;10.414;2022-10-16T00:52:41;14.60;82.90
39519;DHT22;25200;53.394;10.414;2022-10-16T00:55:09;14.60;83.10
39519;DHT22;25200;53.394;10.414;2022-10-16T00:57:35;14.60;83.10
39519;DHT22;25200;53.394;10.414;2022-10-16T01:00:02;14.60;83.10
39519;DHT22;25200;53.394;10.414;2022-10-16T01:02:28;14.60;83.10
39519;DHT22;25200;53.394;10.414;2022-10-16T01:04:54;14.60;83.10
39519;DHT22;25200;53.394;10.414;2022-10-16T01:07:48;14.60;83.10
39519;DHT22;25200;53.394;10.414;2022-10-16T01:10:38;14.60;83.10
39519;DHT22;25200;53.394;10.414;2022-10-16T01:16:13;14.50;83.00
39519;DHT22;25200;53.394;10.414;2022-10-16T01:18:45;14.50;83.10
39519;DHT22;25200;53.394;10.414;2022-10-16T01:21:19;14.50;83.20
39519;DHT22;25200;53.394;10.414;2022-10-16T01:32:31;14.50;83.00
39519;DHT22;25200;53.394;10.414;2022-10-16T01:35:03;14.40;83.00
39519;DHT22;25200;53.394;10.414;2022-10-16T01:38:03;14.40;83.10
39519;DHT22;25200;53.394;10.414;2022-10-16T01:40:33;14.40;83.00
39519;DHT22;25200;53.394;10.414;2022-10-16T01:43:05;14.40;83.10
39519;DHT22;25200;53.394;10.414;2022-10-16T01:45:33;14.40;83.20
39519;DHT22;25200;53.394;10.414;2022-10-16T01:48:01;14.30;83.10
39519;DHT22;25200;53.394;10.414;2022-10-16T01:50:32;14.30;83.00
39519;DHT22;25200;53.394;10.414;2022-10-16T01:52:59;14.30;83.10
39519;DHT22;25200;53.394;10.414;2022-10-16T01:55:31;14.30;83.00
39519;DHT22;25200;53.394;10.414;2022-10-16T01:57:59;14.30;83.20
39519;DHT22;25200;53.394;10.414;2022-10-16T02:00:27;14.30;83.00
39519;DHT22;25200;53.394;10.414;2022-10-16T02:02:55;14.30;83.10
39519;DHT22;25200;53.394;10.414;2022-10-16T02:05:32;14.30;83.00
39519;DHT22;25200;53.394;10.414;2022-10-16T02:07:59;14.20;82.80
39519;DHT22;25200;53.394;10.414;2022-10-16T02:10:25;14.20;82.80
39519;DHT22;25200;53.394;10.414;2022-10-16T02:12:58;14.20;83.00
39519;DHT22;25200;53.394;10.414;2022-10-16T02:15:25;14.20;82.90
39519;DHT22;25200;53.394;10.414;2022-10-16T02:17:50;14.20;82.80
39519;DHT22;25200;53.394;10.414;2022-10-16T02:20:16;14.20;82.80
39519;DHT22;25200;53.394;10.414;2022-10-16T02:22:47;14.10;82.80
39519;DHT22;25200;53.394;10.414;2022-10-16T02:25:22;14.10;82.90
39519;DHT22;25200;53.394;10.414;2022-10-16T02:27:55;14.10;83.00
39519;DHT22;25200;53.394;10.414;2022-10-16T02:30:44;14.10;83.00
39519;DHT22;25200;53.394;10.414;2022-10-16T02:33:13;14.10;82.90
39519;DHT22;25200;53.394;10.414;2022-10-16T02:35:41;14.10;82.70
39519;DHT22;25200;53.394;10.414;2022-10-16T02:38:09;14.10;82.80
39519;DHT22;25200;53.394;10.414;2022-10-16T02:40:35;14.10;83.00
39519;DHT22;25200;53.394;10.414;2022-10-16T02:43:03;14.10;82.90
39519;DHT22;25200;53.394;10.414;2022-10-16T02:45:30;14.10;82.70
39519;DHT22;25200;53.394;10.414;2022-10-16T02:47:55;14.10;82.80
39519;DHT22;25200;53.394;10.414;2022-10-16T02:50:21;14.10;82.70
39519;DHT22;25200;53.394;10.414;2022-10-16T02:52:47;14.00;82.70
39519;DHT22;25200;53.394;10.414;2022-10-16T02:55:13;14.00;82.80
39519;DHT22;25200;53.394;10.414;2022-10-16T02:57:39;14.00;82.70
39519;DHT22;25200;53.394;10.414;2022-10-16T03:00:07;14.00;82.70
39519;DHT22;25200;53.394;10.414;2022-10-16T03:02:33;14.00;82.70
39519;DHT22;25200;53.394;10.414;2022-10-16T03:04:58;14.00;82.70
39519;DHT22;25200;53.394;10.414;2022-10-16T03:07:24;14.00;82.70
39519;DHT22;25200;53.394;10.414;2022-10-16T03:09:50;13.90;82.60
39519;DHT22;25200;53.394;10.414;2022-10-16T03:12:16;13.90;82.60
39519;DHT22;25200;53.394;10.414;2022-10-16T03:14:41;13.90;82.60
39519;DHT22;25200;53.394;10.414;2022-10-16T03:17:07;13.90;82.90
39519;DHT22;25200;53.394;10.414;2022-10-16T03:19:33;13.80;82.60
39519;DHT22;25200;53.394;10.414;2022-10-16T03:21:58;13.80;82.70
39519;DHT22;25200;53.394;10.414;2022-10-16T03:24:24;13.80;82.60
39519;DHT22;25200;53.394;10.414;2022-10-16T03:26:49;13.80;82.70
39519;DHT22;25200;53.394;10.414;2022-10-16T03:29:15;13.80;82.80
39519;DHT22;25200;53.394;10.414;2022-10-16T03:31:41;13.80;82.80
39519;DHT22;25200;53.394;10.414;2022-10-16T03:34:06;13.80;82.70
39519;DHT22;25200;53.394;10.414;2022-10-16T03:36:32;13.80;82.60
39519;DHT22;25200;53.394;10.414;2022-10-16T03:38:58;13.80;82.80
39519;DHT22;25200;53.394;10.414;2022-10-16T03:41:23;13.80;82.80
39519;DHT22;25200;53.394;10.414;2022-10-16T03:43:49;13.80;83.30
39519;DHT22;25200;53.394;10.414;2022-10-16T03:46:14;13.80;82.60
39519;DHT22;25200;53.394;10.414;2022-10-16T03:48:43;13.70;82.50
39519;DHT22;25200;53.394;10.414;2022-10-16T03:51:09;13.70;82.50
39519;DHT22;25200;53.394;10.414;2022-10-16T03:53:34;13.70;82.50
39519;DHT22;25200;53.394;10.414;2022-10-16T03:56:00;13.70;82.60
39519;DHT22;25200;53.394;10.414;2022-10-16T03:58:26;13.70;82.50
39519;DHT22;25200;53.394;10.414;2022-10-16T04:00:51;13.60;82.60
39519;DHT22;25200;53.394;10.414;2022-10-16T04:03:17;13.60;82.60
39519;DHT22;25200;53.394;10.414;2022-10-16T04:05:44;13.60;82.50
39519;DHT22;25200;53.394;10.414;2022-10-16T04:08:10;13.60;82.70
39519;DHT22;25200;53.394;10.414;2022-10-16T04:10:35;13.60;82.70
39519;DHT22;25200;53.394;10.414;2022-10-16T04:13:01;13.60;82.60
39519;DHT22;25200;53.394;10.414;2022-10-16T04:15:27;13.60;82.60
39519;DHT22;25200;53.394;10.414;2022-10-16T04:17:52;13.60;82.50
39519;DHT22;25200;53.394;10.414;2022-10-16T04:20:18;13.50;82.50
39519;DHT22;25200;53.394;10.414;2022-10-16T04:22:44;13.50;82.70
39519;DHT22;25200;53.394;10.414;2022-10-16T04:25:10;13.50;82.50
39519;DHT22;25200;53.394;10.414;2022-10-16T04:27:37;13.50;82.50
39519;DHT22;25200;53.394;10.414;2022-10-16T04:30:04;13.50;82.50
39519;DHT22;25200;53.394;10.414;2022-10-16T04:32:30;13.50;82.60
39519;DHT22;25200;53.394;10.414;2022-10-16T04:34:55;13.40;82.50
39519;DHT22;25200;53.394;10.414;2022-10-16T04:37:25;13.40;82.40
39519;DHT22;25200;53.394;10.414;2022-10-16T04:39:51;13.40;82.40
39519;DHT22;25200;53.394;10.414;2022-10-16T04:42:17;13.40;82.60
39519;DHT22;25200;53.394;10.414;2022-10-16T04:44:43;13.40;82.60
39519;DHT22;25200;53.394;10.414;2022-10-16T04:47:08;13.40;82.60
39519;DHT22;25200;53.394;10.414;2022-10-16T04:49:34;13.40;82.70
39519;DHT22;25200;53.394;10.414;2022-10-16T04:52:00;13.40;82.70
39519;DHT22;25200;53.394;10.414;2022-10-16T04:54:25;13.30;82.50
39519;DHT22;25200;53.394;10.414;2022-10-16T04:56:51;13.30;82.70
39519;DHT22;25200;53.394;10.414;2022-10-16T04:59:19;13.30;82.80
39519;DHT22;25200;53.394;10.414;2022-10-16T05:01:45;13.30;82.60
39519;DHT22;25200;53.394;10.414;2022-10-16T05:04:10;13.30;82.80
39519;DHT22;25200;53.394;10.414;2022-10-16T05:06:37;13.30;82.70
39519;DHT22;25200;53.394;10.414;2022-10-16T05:09:04;13.40;83.00
39519;DHT22;25200;53.394;10.414;2022-10-16T05:11:30;13.40;82.90
39519;DHT22;25200;53.394;10.414;2022-10-16T05:13:56;13.40;82.90
39519;DHT22;25200;53.394;10.414;2022-10-16T05:16:22;13.40;82.90
39519;DHT22;25200;53.394;10.414;2022-10-16T05:18:47;13.40;82.90
39519;DHT22;25200;53.394;10.414;2022-10-16T05:21:13;13.40;82.90
39519;DHT22;25200;53.394;10.414;2022-10-16T05:23:39;13.40;82.90
39519;DHT22;25200;53.394;10.414;2022-10-16T05:26:04;13.30;82.80
39519;DHT22;25200;53.394;10.414;2022-10-16T05:28:32;13.30;82.70
39519;DHT22;25200;53.394;10.414;2022-10-16T05:30:57;13.30;83.00
39519;DHT22;25200;53.394;10.414;2022-10-16T05:33:26;13.30;83.00
39519;DHT22;25200;53.394;10.414;2022-10-16T05:35:52;13.30;82.60
39519;DHT22;25200;53.394;10.414;2022-10-16T05:38:18;13.30;82.80
39519;DHT22;25200;53.394;10.414;2022-10-16T05:40:50;13.30;82.90
39519;DHT22;25200;53.394;10.414;2022-10-16T05:43:16;13.30;83.00
39519;DHT22;25200;53.394;10.414;2022-10-16T05:45:42;13.30;82.90
39519;DHT22;25200;53.394;10.414;2022-10-16T05:48:08;13.30;82.90
39519;DHT22;25200;53.394;10.414;2022-10-16T05:50:33;13.20;82.60
39519;DHT22;25200;53.394;10.414;2022-10-16T05:52:59;13.20;82.80
39519;DHT22;25200;53.394;10.414;2022-10-16T05:55:25;13.20;82.90
39519;DHT22;25200;53.394;10.414;2022-10-16T05:57:53;13.20;83.00
39519;DHT22;25200;53.394;10.414;2022-10-16T06:00:19;13.20;82.90
39519;DHT22;25200;53.394;10.414;2022-10-16T06:02:44;13.20;83.00
39519;DHT22;25200;53.394;10.414;2022-10-16T06:05:10;13.20;82.80
39519;DHT22;25200;53.394;10.414;2022-10-16T06:07:36;13.20;83.00
39519;DHT22;25200;53.394;10.414;2022-10-16T06:10:02;13.20;83.20
39519;DHT22;25200;53.394;10.414;2022-10-16T06:12:28;13.20;83.10
39519;DHT22;25200;53.394;10.414;2022-10-16T06:14:53;13.20;83.10
39519;DHT22;25200;53.394;10.414;2022-10-16T06:17:19;13.20;83.00
39519;DHT22;25200;53.394;10.414;2022-10-16T06:19:45;13.20;83.20
39519;DHT22;25200;53.394;10.414;2022-10-16T06:22:10;13.20;83.00
39519;DHT22;25200;53.394;10.414;2022-10-16T06:24:36;13.20;83.10
39519;DHT22;25200;53.394;10.414;2022-10-16T06:27:03;13.20;83.20
39519;DHT22;25200;53.394;10.414;2022-10-16T06:29:29;13.20;83.30
39519;DHT22;25200;53.394;10.414;2022-10-16T06:31:55;13.20;83.30
39519;DHT22;25200;53.394;10.414;2022-10-16T06:34:20;13.20;83.30
39519;DHT22;25200;53.394;10.414;2022-10-16T06:36:46;13.20;83.40
39519;DHT22;25200;53.394;10.414;2022-10-16T06:39:12;13.20;83.20
39519;DHT22;25200;53.394;10.414;2022-10-16T06:41:37;13.20;83.40
39519;DHT22;25200;53.394;10.414;2022-10-16T06:44:06;13.30;83.30
39519;DHT22;25200;53.394;10.414;2022-10-16T06:46:33;13.30;83.70
39519;DHT22;25200;53.394;10.414;2022-10-16T06:48:59;13.30;83.40
39519;DHT22;25200;53.394;10.414;2022-10-16T06:51:25;13.30;83.30
39519;DHT22;25200;53.394;10.414;2022-10-16T06:53:53;13.30;83.40
39519;DHT22;25200;53.394;10.414;2022-10-16T06:56:21;13.30;83.40
39519;DHT22;25200;53.394;10.414;2022-10-16T06:58:48;13.30;83.40
39519;DHT22;25200;53.394;10.414;2022-10-16T07:01:15;13.30;83.50
39519;DHT22;25200;53.394;10.414;2022-10-16T07:03:43;13.30;83.40
39519;DHT22;25200;53.394;10.414;2022-10-16T07:06:10;13.30;83.60
39519;DHT22;25200;53.394;10.414;2022-10-16T07:08:38;13.30;83.50
39519;DHT22;25200;53.394;10.414;2022-10-16T07:11:10;13.30;83.20
39519;DHT22;25200;53.394;10.414;2022-10-16T07:13:38;13.30;83.60
39519;DHT22;25200;53.394;10.414;2022-10-16T07:16:09;13.30;83.60
39519;DHT22;25200;53.394;10.414;2022-10-16T07:18:35;13.30;83.50
39519;DHT22;25200;53.394;10.414;2022-10-16T07:21:12;13.30;83.40
39519;DHT22;25200;53.394;10.414;2022-10-16T07:23:38;13.30;83.30
39519;DHT22;25200;53.394;10.414;2022-10-16T07:26:05;13.30;83.60
39519;DHT22;25200;53.394;10.414;2022-10-16T07:28:31;13.30;83.50
39519;DHT22;25200;53.394;10.414;2022-10-16T07:31:18;13.30;83.70
39519;DHT22;25200;53.394;10.414;2022-10-16T07:33:45;13.40;83.60
39519;DHT22;25200;53.394;10.414;2022-10-16T07:36:12;13.40;83.60
39519;DHT22;25200;53.394;10.414;2022-10-16T07:38:38;13.40;83.60
39519;DHT22;25200;53.394;10.414;2022-10-16T07:41:09;13.40;84.10
39519;DHT22;25200;53.394;10.414;2022-10-16T07:43:35;13.40;83.70
39519;DHT22;25200;53.394;10.414;2022-10-16T07:46:01;13.40;83.80
39519;DHT22;25200;53.394;10.414;2022-10-16T07:48:28;13.40;83.90
39519;DHT22;25200;53.394;10.414;2022-10-16T07:50:58;13.40;84.00
39519;DHT22;25200;53.394;10.414;2022-10-16T07:53:24;13.50;84.20
39519;DHT22;25200;53.394;10.414;2022-10-16T07:55:50;13.50;84.10
39519;DHT22;25200;53.394;10.414;2022-10-16T07:58:16;13.60;84.10
39519;DHT22;25200;53.394;10.414;2022-10-16T08:00:41;13.50;84.10
39519;DHT22;25200;53.394;10.414;2022-10-16T08:03:08;13.60;84.20
39519;DHT22;25200;53.394;10.414;2022-10-16T08:05:34;13.60;84.20
39519;DHT22;25200;53.394;10.414;2022-10-16T08:08:02;13.60;84.30
39519;DHT22;25200;53.394;10.414;2022-10-16T08:10:29;13.60;84.10
39519;DHT22;25200;53.394;10.414;2022-10-16T08:12:55;13.60;84.40
39519;DHT22;25200;53.394;10.414;2022-10-16T08:15:21;13.70;84.10
39519;DHT22;25200;53.394;10.414;2022-10-16T08:18:01;13.70;84.10
39519;DHT22;25200;53.394;10.414;2022-10-16T08:20:29;13.80;84.10
39519;DHT22;25200;53.394;10.414;2022-10-16T08:22:55;13.80;84.10
39519;DHT22;25200;53.394;10.414;2022-10-16T08:25:22;13.80;84.00
39519;DHT22;25200;53.394;10.414;2022-10-16T08:27:48;13.90;84.00
39519;DHT22;25200;53.394;10.414;2022-10-16T08:30:15;13.90;84.10
39519;DHT22;25200;53.394;10.414;2022-10-16T08:32:41;14.00;84.30
39519;DHT22;25200;53.394;10.414;2022-10-16T08:35:08;14.00;84.30
39519;DHT22;25200;53.394;10.414;2022-10-16T08:37:34;14.10;84.20
39519;DHT22;25200;53.394;10.414;2022-10-16T08:40:00;14.10;84.10
39519;DHT22;25200;53.394;10.414;2022-10-16T08:50:28;14.20;84.10
39519;DHT22;25200;53.394;10.414;2022-10-16T08:52:57;14.20;84.00
39519;DHT22;25200;53.394;10.414;2022-10-16T08:55:48;14.20;84.20
39519;DHT22;25200;53.394;10.414;2022-10-16T08:58:17;14.20;83.90
39519;DHT22;25200;53.394;10.414;2022-10-16T09:00:46;14.30;84.20
39519;DHT22;25200;53.394;10.414;2022-10-16T09:03:44;14.30;84.40
39519;DHT22;25200;53.394;10.414;2022-10-16T09:22:35;14.60;85.00
39519;DHT22;25200;53.394;10.414;2022-10-16T09:25:19;14.70;84.70
39519;DHT22;25200;53.394;10.414;2022-10-16T09:27:48;14.70;84.70
39519;DHT22;25200;53.394;10.414;2022-10-16T09:30:19;14.70;84.60
39519;DHT22;25200;53.394;10.414;2022-10-16T09:32:48;14.80;84.50
39519;DHT22;25200;53.394;10.414;2022-10-16T09:35:20;14.90;84.90
39519;DHT22;25200;53.394;10.414;2022-10-16T09:37:49;14.90;84.60
39519;DHT22;25200;53.394;10.414;2022-10-16T09:40:33;14.90;84.50
39519;DHT22;25200;53.394;10.414;2022-10-16T09:45:42;15.10;84.70
39519;DHT22;25200;53.394;10.414;2022-10-16T09:48:11;15.20;85.50
39519;DHT22;25200;53.394;10.414;2022-10-16T09:50:37;15.40;85.50
39519;DHT22;25200;53.394;10.414;2022-10-16T09:53:11;15.60;84.80
39519;DHT22;25200;53.394;10.414;2022-10-16T09:55:48;15.70;84.70
39519;DHT22;25200;53.394;10.414;2022-10-16T09:58:14;15.90;84.60
39519;DHT22;25200;53.394;10.414;2022-10-16T10:00:42;16.00;84.10
39519;DHT22;25200;53.394;10.414;2022-10-16T10:03:33;16.20;83.70
39519;DHT22;25200;53.394;10.414;2022-10-16T10:06:15;16.30;84.00
39519;DHT22;25200;53.394;10.414;2022-10-16T10:09:38;16.50;83.20
39519;DHT22;25200;53.394;10.414;2022-10-16T10:16:44;16.80;82.70
39519;DHT22;25200;53.394;10.414;2022-10-16T10:19:21;16.90;82.80
39519;DHT22;25200;53.394;10.414;2022-10-16T10:21:49;17.00;82.30
39519;DHT22;25200;53.394;10.414;2022-10-16T10:24:17;17.10;82.20
39519;DHT22;25200;53.394;10.414;2022-10-16T10:27:23;17.20;81.50
39519;DHT22;25200;53.394;10.414;2022-10-16T10:30:18;17.30;81.40
39519;DHT22;25200;53.394;10.414;2022-10-16T10:35:24;17.50;80.40
39519;DHT22;25200;53.394;10.414;2022-10-16T10:40:49;17.60;79.70
39519;DHT22;25200;53.394;10.414;2022-10-16T10:45:47;17.60;79.50
39519;DHT22;25200;53.394;10.414;2022-10-16T10:51:02;17.60;79.90
39519;DHT22;25200;53.394;10.414;2022-10-16T10:56:08;17.60;79.20
39519;DHT22;25200;53.394;10.414;2022-10-16T11:07:21;17.70;78.80
39519;DHT22;25200;53.394;10.414;2022-10-16T11:09:52;17.80;78.90
39519;DHT22;25200;53.394;10.414;2022-10-16T11:12:26;18.00;80.40
39519;DHT22;25200;53.394;10.414;2022-10-16T11:15:31;18.10;79.90
39519;DHT22;25200;53.394;10.414;2022-10-16T11:18:08;18.20;80.00
39519;DHT22;25200;53.394;10.414;2022-10-16T11:20:49;18.30;79.00
39519;DHT22;25200;53.394;10.414;2022-10-16T11:23:28;18.30;78.70
39519;DHT22;25200;53.394;10.414;2022-10-16T11:25:59;18.30;78.60
39519;DHT22;25200;53.394;10.414;2022-10-16T11:28:32;18.40;78.20
39519;DHT22;25200;53.394;10.414;2022-10-16T11:31:10;18.30;77.20
39519;DHT22;25200;53.394;10.414;2022-10-16T11:36:26;18.20;77.10
39519;DHT22;25200;53.394;10.414;2022-10-16T11:41:45;18.30;77.90
39519;DHT22;25200;53.394;10.414;2022-10-16T11:49:39;18.60;77.80
39519;DHT22;25200;53.394;10.414;2022-10-16T11:57:38;18.60;77.40
39519;DHT22;25200;53.394;10.414;2022-10-16T12:00:28;18.70;77.30
39519;DHT22;25200;53.394;10.414;2022-10-16T12:03:10;18.80;77.10
39519;DHT22;25200;53.394;10.414;2022-10-16T12:05:58;18.90;76.80
39519;DHT22;25200;53.394;10.414;2022-10-16T12:08:27;18.90;76.90
39519;DHT22;25200;53.394;10.414;2022-10-16T12:10:53;19.00;76.70
39519;DHT22;25200;53.394;10.414;2022-10-16T12:13:35;19.10;76.30
39519;DHT22;25200;53.394;10.414;2022-10-16T12:16:21;19.10;75.30
39519;DHT22;25200;53.394;10.414;2022-10-16T12:18:48;19.00;76.40
39519;DHT22;25200;53.394;10.414;2022-10-16T12:21:15;18.90;74.80
39519;DHT22;25200;53.394;10.414;2022-10-16T12:24:02;18.90;75.40
39519;DHT22;25200;53.394;10.414;2022-10-16T12:26:42;18.90;76.00
39519;DHT22;25200;53.394;10.414;2022-10-16T12:29:28;18.90;75.60
39519;DHT22;25200;53.394;10.414;2022-10-16T12:31:55;19.00;75.30
39519;DHT22;25200;53.394;10.414;2022-10-16T12:34:39;19.10;75.30
39519;DHT22;25200;53.394;10.414;2022-10-16T12:37:33;19.30;76.00
39519;DHT22;25200;53.394;10.414;2022-10-16T12:40:10;19.40;75.00
39519;DHT22;25200;53.394;10.414;2022-10-16T12:42:37;19.40;73.10
39519;DHT22;25200;53.394;10.414;2022-10-16T12:45:32;19.40;75.30
39519;DHT22;25200;53.394;10.414;2022-10-16T12:48:04;19.40;75.20
39519;DHT22;25200;53.394;10.414;2022-10-16T12:50:38;19.50;74.90
39519;DHT22;25200;53.394;10.414;2022-10-16T12:53:25;19.60;74.80
39519;DHT22;25200;53.394;10.414;2022-10-16T12:56:14;19.70;74.40
39519;DHT22;25200;53.394;10.414;2022-10-16T13:01:37;19.70;73.80
39519;DHT22;25200;53.394;10.414;2022-10-16T13:07:11;19.50;73.10
39519;DHT22;25200;53.394;10.414;2022-10-16T13:09:48;19.40;73.70
39519;DHT22;25200;53.394;10.414;2022-10-16T13:18:16;19.00;73.90
39519;DHT22;25200;53.394;10.414;2022-10-16T13:23:42;18.80;73.40
39519;DHT22;25200;53.394;10.414;2022-10-16T13:27:04;18.70;74.20
39519;DHT22;25200;53.394;10.414;2022-10-16T13:29:09;18.60;74.40
39519;DHT22;25200;53.394;10.414;2022-10-16T13:31:38;18.60;74.90
39519;DHT22;25200;53.394;10.414;2022-10-16T13:34:05;18.60;75.30
39519;DHT22;25200;53.394;10.414;2022-10-16T13:36:48;18.60;75.20
39519;DHT22;25200;53.394;10.414;2022-10-16T13:42:05;18.80;75.80
39519;DHT22;25200;53.394;10.414;2022-10-16T13:44:45;18.90;76.00
39519;DHT22;25200;53.394;10.414;2022-10-16T13:47:24;18.90;76.00
39519;DHT22;25200;53.394;10.414;2022-10-16T13:50:05;19.00;76.10
39519;DHT22;25200;53.394;10.414;2022-10-16T13:52:31;19.00;75.70
39519;DHT22;25200;53.394;10.414;2022-10-16T13:54:57;19.10;76.10
39519;DHT22;25200;53.394;10.414;2022-10-16T13:57:24;19.10;75.40
39519;DHT22;25200;53.394;10.414;2022-10-16T13:59:50;19.10;75.60
39519;DHT22;25200;53.394;10.414;2022-10-16T14:02:27;19.20;76.20
39519;DHT22;25200;53.394;10.414;2022-10-16T14:04:55;19.30;76.10
39519;DHT22;25200;53.394;10.414;2022-10-16T14:07:26;19.40;75.10
39519;DHT22;25200;53.394;10.414;2022-10-16T14:09:53;19.50;74.90
39519;DHT22;25200;53.394;10.414;2022-10-16T14:12:20;19.60;75.40
39519;DHT22;25200;53.394;10.414;2022-10-16T14:14:50;19.60;74.80
39519;DHT22;25200;53.394;10.414;2022-10-16T14:17:35;19.70;75.10
39519;DHT22;25200;53.394;10.414;2022-10-16T14:20:05;19.80;74.70
39519;DHT22;25200;53.394;10.414;2022-10-16T14:22:40;19.80;74.10
39519;DHT22;25200;53.394;10.414;2022-10-16T14:28:15;19.90;74.20
39519;DHT22;25200;53.394;10.414;2022-10-16T14:30:58;19.90;74.70
39519;DHT22;25200;53.394;10.414;2022-10-16T14:36:14;19.80;74.10
39519;DHT22;25200;53.394;10.414;2022-10-16T14:38:43;19.90;73.50
39519;DHT22;25200;53.394;10.414;2022-10-16T14:41:13;19.80;73.60
39519;DHT22;25200;53.394;10.414;2022-10-16T14:43:41;19.70;73.50
39519;DHT22;25200;53.394;10.414;2022-10-16T14:46:19;19.60;73.10
39519;DHT22;25200;53.394;10.414;2022-10-16T14:48:48;19.60;73.90
39519;DHT22;25200;53.394;10.414;2022-10-16T14:51:16;19.50;74.00
39519;DHT22;25200;53.394;10.414;2022-10-16T14:53:42;19.40;73.40
39519;DHT22;25200;53.394;10.414;2022-10-16T14:56:22;19.40;72.20
39519;DHT22;25200;53.394;10.414;2022-10-16T14:58:50;19.30;73.90
39519;DHT22;25200;53.394;10.414;2022-10-16T15:01:16;19.20;73.50
39519;DHT22;25200;53.394;10.414;2022-10-16T15:03:43;19.20;73.70
39519;DHT22;25200;53.394;10.414;2022-10-16T15:06:11;19.10;74.40
39519;DHT22;25200;53.394;10.414;2022-10-16T15:08:37;19.00;74.00
39519;DHT22;25200;53.394;10.414;2022-10-16T15:11:03;19.00;74.00
39519;DHT22;25200;53.394;10.414;2022-10-16T15:13:29;18.90;73.50
39519;DHT22;25200;53.394;10.414;2022-10-16T15:15:55;18.80;73.60
39519;DHT22;25200;53.394;10.414;2022-10-16T15:18:20;18.80;73.30
39519;DHT22;25200;53.394;10.414;2022-10-16T15:20:50;18.70;73.60
39519;DHT22;25200;53.394;10.414;2022-10-16T15:23:21;18.60;73.80
39519;DHT22;25200;53.394;10.414;2022-10-16T15:25:50;18.60;74.20
39519;DHT22;25200;53.394;10.414;2022-10-16T15:28:17;18.50;74.00
39519;DHT22;25200;53.394;10.414;2022-10-16T15:30:43;18.40;74.00
39519;DHT22;25200;53.394;10.414;2022-10-16T15:33:13;18.40;74.20
39519;DHT22;25200;53.394;10.414;2022-10-16T15:35:39;18.30;74.20
39519;DHT22;25200;53.394;10.414;2022-10-16T15:38:05;18.30;74.40
39519;DHT22;25200;53.394;10.414;2022-10-16T15:40:30;18.30;74.70
39519;DHT22;25200;53.394;10.414;2022-10-16T15:42:56;18.20;74.80
39519;DHT22;25200;53.394;10.414;2022-10-16T15:45:22;18.10;75.10
39519;DHT22;25200;53.394;10.414;2022-10-16T15:47:48;18.10;75.10
39519;DHT22;25200;53.394;10.414;2022-10-16T15:50:15;18.00;75.60
39519;DHT22;25200;53.394;10.414;2022-10-16T15:52:41;18.00;75.30
39519;DHT22;25200;53.394;10.414;2022-10-16T15:55:12;17.90;75.70
39519;DHT22;25200;53.394;10.414;2022-10-16T15:57:38;17.90;75.40
39519;DHT22;25200;53.394;10.414;2022-10-16T16:00:10;17.80;75.50
39519;DHT22;25200;53.394;10.414;2022-10-16T16:02:37;17.80;75.90
39519;DHT22;25200;53.394;10.414;2022-10-16T16:05:03;17.70;75.90
39519;DHT22;25200;53.394;10.414;2022-10-16T16:07:32;17.70;76.20
39519;DHT22;25200;53.394;10.414;2022-10-16T16:09:57;17.60;76.20
39519;DHT22;25200;53.394;10.414;2022-10-16T16:12:23;17.60;76.30
39519;DHT22;25200;53.394;10.414;2022-10-16T16:14:49;17.50;76.20
39519;DHT22;25200;53.394;10.414;2022-10-16T16:17:15;17.50;76.70
39519;DHT22;25200;53.394;10.414;2022-10-16T16:19:40;17.40;76.60
39519;DHT22;25200;53.394;10.414;2022-10-16T16:22:06;17.40;76.60
39519;DHT22;25200;53.394;10.414;2022-10-16T16:24:32;17.30;76.60
39519;DHT22;25200;53.394;10.414;2022-10-16T16:26:57;17.20;76.70
39519;DHT22;25200;53.394;10.414;2022-10-16T16:29:23;17.20;76.70
39519;DHT22;25200;53.394;10.414;2022-10-16T16:31:49;17.10;76.60
39519;DHT22;25200;53.394;10.414;2022-10-16T16:34:14;17.10;76.80
39519;DHT22;25200;53.394;10.414;2022-10-16T16:36:40;17.00;76.90
39519;DHT22;25200;53.394;10.414;2022-10-16T16:39:06;17.00;76.90
39519;DHT22;25200;53.394;10.414;2022-10-16T16:41:33;16.90;76.90
39519;DHT22;25200;53.394;10.414;2022-10-16T16:44:03;16.90;77.10
39519;DHT22;25200;53.394;10.414;2022-10-16T16:46:30;16.80;77.00
39519;DHT22;25200;53.394;10.414;2022-10-16T16:48:58;16.80;77.10
39519;DHT22;25200;53.394;10.414;2022-10-16T16:51:24;16.70;77.10
39519;DHT22;25200;53.394;10.414;2022-10-16T16:53:52;16.70;77.20
39519;DHT22;25200;53.394;10.414;2022-10-16T16:56:19;16.60;77.10
39519;DHT22;25200;53.394;10.414;2022-10-16T16:58:49;16.60;77.20
39519;DHT22;25200;53.394;10.414;2022-10-16T17:01:15;16.50;77.10
39519;DHT22;25200;53.394;10.414;2022-10-16T17:03:43;16.50;77.20
39519;DHT22;25200;53.394;10.414;2022-10-16T17:06:13;16.40;77.20
39519;DHT22;25200;53.394;10.414;2022-10-16T17:08:40;16.40;77.40
39519;DHT22;25200;53.394;10.414;2022-10-16T17:11:10;16.30;77.40
39519;DHT22;25200;53.394;10.414;2022-10-16T17:13:36;16.30;77.50
39519;DHT22;25200;53.394;10.414;2022-10-16T17:16:04;16.30;77.60
39519;DHT22;25200;53.394;10.414;2022-10-16T17:18:30;16.20;77.60